Latest Weather Observations for Roebourne Airport

IDW60801

Issued at 7:02 pm WST Tuesday 3 March 2015 (issued every 30 minutes, with the page automatically refreshed every 10 minutes)

About weather observations | Map of weather stations | Latest weather observations for WA | Other Formats
Station Details ID: 004090 Name: ROEBOURNE AERO Lat: -20.76 Lon: 117.16 Height: 10.7 m
Data from the previous 72 hours. | See also: Recent months at Roebourne Airport
Date/Time
WST
Temp
°C
App
Temp
°C
Dew
Point
Rel
Hum
%
Delta-T
°C
Wind Press
QNH
hPa
Press
MSL
hPa
Rain
since 9 am
mm
Dir
 
Spd
km/h
Gust
km/h
Spd
kts
Gust
kts
03/07:00pm 30.7 31.1 20.9 56 6.6 NW 20 24 11 13 1007.0 1007.0 0.0
03/06:30pm 31.6 30.9 19.6 49 7.9 NNW 22 28 12 15 1006.3 1006.3 0.0
03/06:00pm 32.5 31.8 18.7 44 9.0 NNW 20 28 11 15 1006.0 1006.0 0.0
03/05:30pm 33.3 32.8 18.6 41 9.6 NNW 19 24 10 13 1005.8 1005.8 0.0
03/05:00pm 33.9 33.3 18.8 41 9.9 NNW 20 28 11 15 1005.5 1005.5 0.0
03/04:30pm 34.3 33.3 17.9 37 10.6 N 20 26 11 14 1005.5 1005.5 0.0
03/04:00pm 34.3 33.6 18.3 38 10.4 N 19 28 10 15 1005.6 1005.6 0.0
03/03:30pm 35.4 35.4 19.7 39 10.4 N 19 28 10 15 1005.6 1005.6 0.0
03/03:00pm 34.5 34.7 20.5 44 9.4 NNW 20 28 11 15 1006.0 1006.0 0.0
03/02:30pm 35.9 35.3 18.5 36 11.4 NNE 19 24 10 13 1006.4 1006.4 0.0
03/02:00pm 35.4 34.8 17.6 35 11.5 NNE 17 30 9 16 1006.6 1006.6 0.0
03/01:30pm 36.1 35.0 16.3 31 12.6 NNE 17 28 9 15 1006.9 1006.9 0.0
03/01:00pm 35.1 34.8 19.5 40 10.4 N 20 33 11 18 1007.2 1007.2 0.0
03/12:30pm 34.5 35.0 20.8 44 9.2 N 19 32 10 17 1007.7 1007.7 0.0
03/12:00pm 36.0 36.6 21.4 42 10.0 N 20 30 11 16 1007.8 1007.8 0.0
03/11:30am 35.0 34.6 20.9 43 9.5 N 24 32 13 17 1007.9 1007.9 0.0
03/11:29am 35.4 35.4 20.9 42 9.8 N 22 32 12 17 1007.9 1007.9 0.0
03/11:00am 35.5 36.6 17.2 33 11.8 NNE 7 13 4 7 1008.2 1008.2 0.0
03/10:30am 34.2 36.0 16.5 34 11.2 WSW 2 9 1 5 1008.6 1008.6 0.0
03/10:00am 33.5 34.5 16.8 36 10.6 NNW 7 15 4 8 1008.6 1008.6 0.0
03/09:30am 32.8 33.9 17.0 38 10.0 W 7 13 4 7 1008.9 1008.9 0.0
03/09:00am 31.8 32.4 17.7 43 9.0 WSW 11 19 6 10 1009.0 1009.0 0.0
03/08:30am 31.3 32.0 17.9 44 8.6 WSW 11 17 6 9 1008.9 1008.9 0.0
03/08:00am 29.9 30.7 19.0 52 7.1 WSW 13 19 7 10 1008.8 1008.8 0.0
03/07:30am 29.1 29.8 19.7 57 6.1 WSW 15 20 8 11 1008.5 1008.5 0.0
03/07:00am 27.9 29.6 21.0 66 4.6 W 13 17 7 9 1008.1 1008.1 0.0
03/06:30am 26.8 29.3 21.8 74 3.3 W 11 15 6 8 1007.9 1007.9 0.0
03/06:00am 27.0 29.1 21.7 73 3.5 W 13 19 7 10 1007.7 1007.7 0.0
03/05:30am 27.1 29.3 21.8 73 3.5 W 13 17 7 9 1007.3 1007.3 0.0
03/05:00am 27.2 28.6 21.9 73 3.6 W 17 20 9 11 1007.0 1007.0 0.0
03/04:30am 27.3 28.7 21.8 72 3.7 W 17 20 9 11 1006.7 1006.7 0.0
03/04:00am 27.2 28.6 21.9 73 3.6 W 17 19 9 10 1006.6 1006.6 0.0
03/03:30am 27.3 28.7 21.8 72 3.7 W 17 20 9 11 1006.6 1006.6 0.0
03/03:00am 27.3 29.2 22.0 73 3.6 W 15 17 8 9 1006.4 1006.4 0.0
03/02:30am 27.4 29.2 21.9 72 3.7 W 15 19 8 10 1006.4 1006.4 0.0
03/02:00am 27.7 29.6 22.0 71 3.8 W 15 20 8 11 1006.5 1006.5 0.0
03/01:30am 27.8 29.2 21.8 70 4.0 W 17 20 9 11 1006.8 1006.8 0.0
03/01:00am 27.9 29.2 21.7 69 4.2 W 17 20 9 11 1007.2 1007.2 0.0
03/12:30am 28.0 28.9 21.5 67 4.3 W 19 22 10 12 1007.3 1007.3 0.0
03/12:00am 28.1 29.1 21.1 65 4.7 W 17 22 9 12 1007.4 1007.4 0.0
 
Date/Time
WST
Temp
°C
App
Temp
°C
Dew
Point
Rel
Hum
%
Delta-T
°C
Wind Press
QNH
hPa
Press
MSL
hPa
Rain
since 9 am
mm
Dir
 
Spd
km/h
Gust
km/h
Spd
kts
Gust
kts
02/11:30pm 28.4 28.9 21.2 65 4.8 W 20 28 11 15 1007.4 1007.4 0.0
02/11:00pm 28.5 29.4 21.5 66 4.7 W 19 24 10 13 1007.4 1007.4 0.0
02/10:30pm 28.5 30.2 23.0 72 3.8 W 19 24 10 13 1007.6 1007.6 0.0
02/10:00pm 28.6 28.8 22.1 68 4.4 W 24 32 13 17 1007.4 1007.4 0.0
02/09:30pm 28.7 28.6 21.5 65 4.8 W 24 30 13 16 1007.2 1007.2 0.0
02/09:00pm 28.9 28.4 21.4 64 5.0 W 26 35 14 19 1006.7 1006.7 0.0
02/08:30pm 29.1 28.1 21.3 62 5.2 W 28 35 15 19 1006.2 1006.2 0.0
02/08:00pm 29.4 28.5 21.4 62 5.4 W 28 35 15 19 1005.9 1005.9 0.0
02/07:30pm 29.9 27.6 20.2 56 6.4 WNW 32 39 17 21 1005.4 1005.4 0.0
02/07:00pm 30.2 28.8 20.4 55 6.5 WNW 28 37 15 20 1005.1 1005.1 0.0
02/06:30pm 30.9 30.3 21.9 58 6.1 WNW 28 35 15 19 1004.8 1004.8 0.0
02/06:00pm 31.9 30.6 21.4 53 7.1 WNW 30 37 16 20 1004.3 1004.3 0.0
02/05:30pm 32.8 31.6 21.6 51 7.6 NW 30 41 16 22 1004.0 1004.0 0.0
02/05:00pm 33.3 31.1 20.4 46 8.6 NW 32 39 17 21 1003.6 1003.5 0.0
02/04:30pm 34.0 32.6 21.1 47 8.7 NW 30 39 16 21 1003.5 1003.4 0.0
02/04:00pm 34.3 33.2 21.0 45 9.0 NW 28 37 15 20 1003.4 1003.3 0.0
02/03:30pm 35.0 33.7 21.3 45 9.3 NNW 30 39 16 21 1003.5 1003.4 0.0
02/03:00pm 35.6 34.5 21.1 43 9.9 NW 28 37 15 20 1003.9 1003.8 0.0
02/02:30pm 35.7 34.3 21.2 43 9.8 NNW 30 39 16 21 1004.3 1004.3 0.0
02/02:00pm 35.5 33.2 20.6 41 10.1 NNW 33 46 18 25 1004.5 1004.5 0.0
02/01:55pm 35.5 34.0 20.2 40 10.2 NNW 28 43 15 23 1004.4 1004.4 0.0
02/01:30pm 35.2 35.5 17.9 36 11.2 WSW 13 22 7 12 1004.8 1004.8 0.0
02/01:00pm 35.8 35.7 17.0 32 12.1 SSW 13 24 7 13 1005.2 1005.2 0.0
02/12:30pm 36.7 37.6 18.3 34 12.1 WSW 11 24 6 13 1005.7 1005.7 0.0
02/12:00pm 35.6 36.2 17.8 35 11.6 W 11 22 6 12 1006.2 1006.2 0.0
02/11:30am 34.2 33.5 17.4 36 10.8 W 17 26 9 14 1006.7 1006.7 0.0
02/11:00am 34.5 34.7 18.5 38 10.5 WSW 15 22 8 12 1007.2 1007.2 0.0
02/10:30am 33.5 33.8 18.8 41 9.6 W 15 30 8 16 1007.4 1007.4 0.0
02/10:00am 32.5 32.1 19.0 44 8.8 WSW 19 26 10 14 1007.7 1007.7 0.0
02/09:30am 31.5 32.5 19.5 49 7.9 SW 13 22 7 12 1008.0 1008.0 0.0
02/09:00am 31.0 32.2 20.6 54 6.9 WSW 15 20 8 11 1008.1 1008.1 0.0
02/08:30am 30.0 30.9 20.8 57 6.1 SW 17 22 9 12 1008.0 1008.0 0.0
02/08:00am 29.1 29.8 20.5 59 5.7 WSW 17 22 9 12 1007.8 1007.8 0.0
02/07:30am 28.3 29.7 21.1 65 4.8 WSW 15 20 8 11 1007.6 1007.6 0.0
02/07:00am 27.3 29.6 22.0 73 3.6 WSW 13 15 7 8 1007.4 1007.4 0.0
02/06:30am 26.5 28.7 21.9 76 3.1 WSW 13 15 7 8 1007.4 1007.4 0.0
02/06:00am 26.4 28.7 22.0 77 3.0 WSW 13 15 7 8 1007.0 1007.0 0.0
02/05:30am 26.6 29.3 22.2 77 3.0 WSW 11 15 6 8 1006.8 1006.8 0.0
02/05:00am 26.8 28.9 22.4 77 3.0 WSW 15 17 8 9 1006.8 1006.8 0.0
02/04:30am 26.9 28.9 22.3 76 3.1 W 15 20 8 11 1006.6 1006.6 0.0
02/04:00am 27.0 28.3 22.4 76 3.1 W 19 26 10 14 1006.7 1006.7 0.0
02/03:30am 27.1 28.9 22.5 76 3.1 W 17 24 9 13 1007.0 1007.0 0.0
02/03:00am 27.2 28.6 22.6 76 3.1 W 19 24 10 13 1006.8 1006.8 0.0
02/02:30am 27.3 28.6 22.7 76 3.1 W 20 26 11 14 1006.9 1006.9 0.0
02/02:00am 27.5 28.8 22.7 75 3.3 W 20 28 11 15 1007.0 1007.0 0.0
02/01:30am 27.7 29.7 22.9 75 3.3 W 17 20 9 11 1007.1 1007.1 0.0
02/01:00am 27.7 30.1 22.9 75 3.3 W 15 20 8 11 1007.1 1007.1 0.0
02/12:30am 27.9 29.7 22.6 73 3.6 W 17 20 9 11 1007.1 1007.1 0.0
02/12:00am 28.0 29.9 22.7 73 3.6 W 17 22 9 12 1007.2 1007.2 0.0
 
Date/Time
WST
Temp
°C
App
Temp
°C
Dew
Point
Rel
Hum
%
Delta-T
°C
Wind Press
QNH
hPa
Press
MSL
hPa
Rain
since 9 am
mm
Dir
 
Spd
km/h
Gust
km/h
Spd
kts
Gust
kts
01/11:30pm 28.2 30.5 22.7 72 3.7 W 15 20 8 11 1007.4 1007.4 0.0
01/11:00pm 28.3 29.6 22.3 70 4.1 W 19 24 10 13 1007.7 1007.7 0.0
01/10:30pm 28.4 29.6 22.2 69 4.2 W 19 24 10 13 1007.7 1007.7 0.0
01/10:00pm 28.5 29.6 22.3 69 4.2 W 20 26 11 14 1007.6 1007.6 0.0
01/09:30pm 28.7 29.6 22.7 70 4.1 WNW 22 28 12 15 1007.6 1007.6 0.0
01/09:00pm 28.9 30.2 22.6 69 4.3 WNW 20 28 11 15 1007.5 1007.5 0.0
01/08:30pm 29.0 30.2 22.5 68 4.4 W 20 28 11 15 1007.1 1007.1 0.0
01/08:00pm 29.2 30.0 22.4 66 4.6 WNW 22 30 12 16 1006.8 1006.8 0.0
01/07:30pm 29.5 29.7 22.0 64 5.1 WNW 24 30 13 16 1006.5 1006.5 0.0
01/07:00pm 29.7 30.5 22.4 65 5.0 WNW 22 28 12 15 1006.1 1006.1 0.0
01/06:30pm 30.3 30.7 22.5 63 5.3 WNW 24 33 13 18 1005.8 1005.8 0.0
01/06:00pm 31.1 30.8 21.9 58 6.2 WNW 26 37 14 20 1005.6 1005.6 0.0
01/05:30pm 32.4 31.3 21.0 51 7.7 NW 28 35 15 19 1005.2 1005.2 0.0
01/05:00pm 33.1 31.8 20.6 47 8.4 WNW 28 35 15 19 1004.9 1004.9 0.0
01/04:30pm 33.5 32.4 20.3 46 8.8 NW 26 35 14 19 1004.9 1004.9 0.0
01/04:00pm 34.4 32.8 19.2 40 10.0 NNW 26 35 14 19 1004.9 1004.9 0.0
01/03:30pm 34.4 32.8 19.2 40 10.0 NNW 26 35 14 19 1004.9 1004.9 0.0
01/03:00pm 35.4 34.0 19.7 39 10.5 NW 26 33 14 18 1005.1 1005.1 0.0
01/02:30pm 35.4 35.7 20.5 41 10.0 NW 19 28 10 15 1005.2 1005.2 0.0
01/02:00pm 34.9 35.0 21.2 45 9.3 NW 22 30 12 16 1005.7 1005.7 0.0
01/01:30pm 35.4 36.3 21.6 44 9.4 NNW 19 30 10 16 1006.0 1006.0 0.0
01/01:00pm 34.9 35.6 21.2 45 9.3 NNW 19 33 10 18 1006.4 1006.4 0.0
01/12:30pm 34.4 35.1 20.4 44 9.4 NNW 17 28 9 15 1006.7 1006.7 0.0
01/12:00pm 35.8 36.9 21.3 43 9.9 WNW 17 24 9 13 1007.3 1007.3 0.0
01/11:30am 33.8 34.6 20.6 46 8.8 NW 17 20 9 11 1007.5 1007.5 0.0
01/11:00am 33.7 36.7 21.2 48 8.5 NW 7 24 4 13 1008.0 1008.0 0.0
01/10:30am 33.7 35.7 20.8 46 8.7 NNW 11 19 6 10 1008.3 1008.3 0.0
01/10:00am 32.6 34.2 21.5 52 7.5 WNW 15 22 8 12 1008.4 1008.4 0.0
01/09:30am 31.6 33.3 21.7 55 6.7 WNW 15 22 8 12 1008.5 1008.5 0.0
01/09:00am 30.5 32.4 22.1 61 5.7 W 15 22 8 12 1008.5 1008.5 0.0
01/08:30am 29.7 31.3 22.2 64 5.1 WNW 17 20 9 11 1008.5 1008.5 0.0
01/08:00am 29.5 31.7 23.2 69 4.3 WNW 17 22 9 12 1008.4 1008.4 0.0
01/07:30am 28.3 30.8 23.2 74 3.5 W 15 19 8 10 1008.3 1008.3 0.0
01/07:00am 27.9 31.6 23.3 76 3.2 W 9 15 5 8 1008.1 1008.1 0.0
01/06:30am 27.3 30.9 23.1 78 2.9 WNW 9 11 5 6 1007.9 1007.9 0.0
01/06:00am 27.3 30.5 23.1 78 2.9 WNW 11 15 6 8 1007.4 1007.3 0.0
01/05:30am 27.4 30.7 23.2 78 2.9 WNW 11 15 6 8 1007.1 1007.0 0.0
01/05:00am 27.3 30.0 22.9 77 3.0 WNW 13 15 7 8 1006.6 1006.5 0.0
01/04:30am 27.3 30.7 22.7 76 3.1 W 9 11 5 6 1006.4 1006.3 0.0
01/04:00am 27.4 30.4 22.6 75 3.3 W 11 15 6 8 1006.3 1006.2 0.0
01/03:30am 27.6 30.1 22.5 74 3.4 W 13 15 7 8 1006.2 1006.1 0.0
01/03:00am 27.6 29.7 22.5 74 3.5 W 15 19 8 10 1006.1 1006.0 0.0
01/02:30am 27.7 29.9 22.6 74 3.5 W 15 17 8 9 1006.3 1006.2 0.0
01/02:00am 27.6 30.1 22.5 74 3.5 W 13 17 7 9 1006.6 1006.5 0.0
01/01:30am 27.6 29.7 22.5 74 3.4 W 15 19 8 10 1006.7 1006.6 0.0
01/01:00am 27.8 29.7 22.7 74 3.5 W 17 20 9 11 1007.0 1006.9 0.0
01/12:30am 28.0 29.9 22.7 73 3.6 W 17 24 9 13 1007.3 1007.2 0.0
01/12:00am 28.2 29.5 22.7 72 3.7 W 20 26 11 14 1007.5 1007.4 0.0
 
Date/Time
WST
Temp
°C
App
Temp
°C
Dew
Point
Rel
Hum
%
Delta-T
°C
Wind Press
QNH
hPa
Press
MSL
hPa
Rain
since 9 am
mm
Dir
 
Spd
km/h
Gust
km/h
Spd
kts
Gust
kts
28/11:30pm 28.3 29.1 22.5 71 3.9 W 22 30 12 16 1007.4 1007.3 0.0
28/11:00pm 28.3 29.0 23.0 73 3.6 W 24 32 13 17 1007.3 1007.2 0.0
28/10:30pm 28.4 29.2 23.1 73 3.6 W 24 30 13 16 1007.8 1007.8 0.0
28/10:00pm 28.5 29.2 23.0 72 3.8 W 24 32 13 17 1007.8 1007.8 0.0
28/09:30pm 28.7 29.8 23.1 71 3.8 W 22 28 12 15 1008.0 1008.0 0.0
28/09:00pm 28.9 29.0 22.6 69 4.3 W 26 35 14 19 1007.8 1007.8 0.0
28/08:30pm 29.1 29.0 22.3 66 4.6 W 26 33 14 18 1007.5 1007.4 0.0
28/08:00pm 29.4 29.0 22.4 66 4.8 W 28 35 15 19 1006.9 1006.8 0.0
28/07:30pm 29.7 29.1 21.9 63 5.3 WNW 28 33 15 18 1006.0 1005.9 0.0

Other Formats:

Comma delimited format used in spreadsheet applications
http://www.bom.gov.au/fwo/IDW60801/IDW60801.94308.axf

JavaScript Object Notation format (JSON) in row-major order
http://www.bom.gov.au/fwo/IDW60801/IDW60801.94308.json